Time;durP1;ratioP1;P1;durP2;ratioP2;P2;SDS_P1;SDS_P2;PMS_P1;PMS_P2;Temp;Humidity;BMP_temperature;BMP_pressure;BME280_temperature;BME280_humidity;BME280_pressure;Samples;Min_cycle;Max_cycle;Signal;HPM_P1;HPM_P2
2022/11/13 00:00:28;;;;;;;2.53;2.20;;;4.90;99.90;;;;;;4888238;29;20120;-72
2022/11/13 00:02:54;;;;;;;4.15;2.72;;;5.00;99.90;;;;;;4900603;29;20035;-72
2022/11/13 00:05:20;;;;;;;3.85;3.10;;;5.00;99.90;;;;;;4896115;29;20520;-72
2022/11/13 00:07:45;;;;;;;5.97;4.85;;;5.00;99.90;;;;;;4866542;29;20048;-73
2022/11/13 00:10:11;;;;;;;5.38;4.47;;;5.00;99.90;;;;;;4882661;29;20049;-73
2022/11/13 00:12:37;;;;;;;6.07;4.78;;;5.00;99.90;;;;;;4866750;29;20053;-73
2022/11/13 00:15:03;;;;;;;4.43;3.92;;;5.10;99.90;;;;;;4855156;29;20055;-74
2022/11/13 00:17:28;;;;;;;4.53;3.80;;;5.10;99.90;;;;;;4897471;29;20060;-72
2022/11/13 00:19:54;;;;;;;3.53;2.78;;;5.00;99.90;;;;;;4897411;29;20071;-72
2022/11/13 00:22:20;;;;;;;2.97;2.50;;;5.10;99.90;;;;;;4900446;29;20139;-72
2022/11/13 00:24:45;;;;;;;3.17;2.75;;;5.20;99.90;;;;;;4900648;29;20400;-72
2022/11/13 00:27:11;;;;;;;3.90;2.70;;;5.20;99.90;;;;;;4869733;29;20042;-72
2022/11/13 00:29:37;;;;;;;3.38;2.58;;;5.20;99.90;;;;;;4881501;29;20048;-72
2022/11/13 00:32:03;;;;;;;2.85;2.28;;;5.20;99.90;;;;;;4900554;29;20048;-73
2022/11/13 00:34:29;;;;;;;2.30;1.83;;;5.20;99.90;;;;;;4900255;29;20511;-72
2022/11/13 00:36:54;;;;;;;1.90;1.60;;;5.30;99.90;;;;;;4900035;29;20099;-72
2022/11/13 00:39:20;;;;;;;2.97;2.67;;;5.40;99.90;;;;;;4884879;29;20063;-73
2022/11/13 00:41:46;;;;;;;4.00;3.28;;;5.40;99.90;;;;;;4884766;29;20437;-73
2022/11/13 00:44:12;;;;;;;3.53;3.00;;;5.40;99.90;;;;;;4900130;29;20043;-73
2022/11/13 00:46:37;;;;;;;3.10;2.58;;;5.40;99.90;;;;;;4900087;29;20377;-73
2022/11/13 00:49:03;;;;;;;3.72;2.70;;;5.40;99.90;;;;;;4884660;29;20048;-73
2022/11/13 00:51:30;;;;;;;3.22;2.47;;;5.50;99.90;;;;;;4900060;29;20099;-73
2022/11/13 00:53:55;;;;;;;3.03;2.33;;;5.50;99.90;;;;;;4899801;29;20052;-74
2022/11/13 00:56:21;;;;;;;4.07;3.47;;;5.60;99.90;;;;;;4899993;29;20048;-71
2022/11/13 00:58:46;;;;;;;3.53;2.85;;;5.70;99.90;;;;;;4908859;29;20060;-71
2022/11/13 01:01:15;;;;;;;3.42;2.90;;;5.80;99.90;;;;;;4868351;29;20107;-71
2022/11/13 01:03:40;;;;;;;4.35;3.50;;;5.90;99.90;;;;;;4882569;29;20036;-72
2022/11/13 01:06:32;;;;;;;3.42;2.70;;;6.10;99.90;;;;;;4899100;29;20052;-72
2022/11/13 01:08:58;;;;;;;4.07;3.03;;;6.10;99.90;;;;;;4895469;29;20591;-72
2022/11/13 01:11:27;;;;;;;3.92;2.95;;;6.20;99.90;;;;;;4892253;29;20047;-72
2022/11/13 01:13:52;;;;;;;3.45;2.50;;;6.30;99.90;;;;;;4880807;29;20040;-72
2022/11/13 01:16:21;;;;;;;3.50;2.58;;;6.30;99.90;;;;;;4879293;29;20099;-73
2022/11/13 01:18:47;;;;;;;2.75;2.38;;;6.40;99.90;;;;;;4896414;29;20456;-72
2022/11/13 01:21:19;;;;;;;4.63;4.10;;;6.40;99.90;;;;;;4896305;29;20131;-72
2022/11/13 01:23:44;;;;;;;5.00;4.32;;;6.40;99.90;;;;;;4899770;29;20544;-72
2022/11/13 01:26:23;;;;;;;6.88;5.18;;;6.50;99.90;;;;;;4883467;29;20107;-72
2022/11/13 01:28:49;;;;;;;6.28;4.97;;;6.50;99.90;;;;;;4899194;29;20047;-72
2022/11/13 01:31:18;;;;;;;8.65;7.18;;;6.50;99.90;;;;;;4899060;29;20044;-72
2022/11/13 01:33:44;;;;;;;9.90;8.07;;;6.60;99.90;;;;;;4899028;29;20044;-72
2022/11/13 01:36:19;;;;;;;13.45;9.70;;;6.70;99.90;;;;;;4883378;29;20051;-72
2022/11/13 01:38:45;;;;;;;10.60;8.70;;;6.70;99.90;;;;;;4883530;29;20153;-72
2022/11/13 01:41:21;;;;;;;9.55;8.55;;;6.80;99.90;;;;;;4881084;29;20053;-73
2022/11/13 01:43:48;;;;;;;13.68;9.43;;;6.80;99.90;;;;;;4895845;29;20052;-72
2022/11/13 01:46:22;;;;;;;10.68;9.02;;;;;;;;;;4880419;29;20396;-73
2022/11/13 01:48:53;;;;;;;13.20;10.85;;;6.90;99.90;;;;;;4880264;29;20408;-73
2022/11/13 01:51:31;;;;;;;13.63;11.40;;;6.90;99.90;;;;;;4895944;29;20128;-73
2022/11/13 01:53:59;;;;;;;14.93;10.98;;;7.10;99.90;;;;;;4895843;29;20411;-74
2022/11/13 01:56:25;;;;;;;14.43;11.05;;;7.00;99.90;;;;;;4898385;29;20392;-73
2022/11/13 01:58:57;;;;;;;14.70;11.35;;;7.10;99.90;;;;;;4898015;29;20159;-73
2022/11/13 02:01:23;;;;;;;11.90;10.07;;;7.10;99.90;;;;;;4898090;29;20501;-73
2022/11/13 02:03:49;;;;;;;11.82;9.63;;;7.10;99.90;;;;;;4897702;29;20051;-73
2022/11/13 02:06:15;;;;;;;10.60;8.60;;;7.10;99.90;;;;;;4897694;29;20036;-73
2022/11/13 02:08:43;;;;;;;10.10;8.23;;;7.20;99.90;;;;;;4897289;29;20040;-72
2022/11/13 02:11:09;;;;;;;8.02;6.80;;;7.10;99.90;;;;;;4897894;29;20071;-72
2022/11/13 02:13:36;;;;;;;6.68;5.78;;;7.10;99.90;;;;;;4897831;29;20036;-72
2022/11/13 02:16:03;;;;;;;6.35;5.13;;;7.10;99.90;;;;;;4897244;29;20203;-72
2022/11/13 02:18:30;;;;;;;8.27;6.43;;;7.10;99.90;;;;;;4883074;29;20507;-73
2022/11/13 02:21:09;;;;;;;7.53;6.32;;;7.10;99.90;;;;;;4914055;29;20096;-73
2022/11/13 02:23:43;;;;;;;7.13;5.85;;;7.10;99.90;;;;;;4898401;29;20044;-73
2022/11/13 02:26:09;;;;;;;7.50;5.70;;;7.20;99.90;;;;;;4899047;29;20056;-72
2022/11/13 02:28:35;;;;;;;8.25;6.53;;;7.20;99.90;;;;;;4896334;29;20552;-72
2022/11/13 02:31:12;;;;;;;8.55;6.85;;;7.20;99.90;;;;;;4896368;29;20052;-72
2022/11/13 02:33:38;;;;;;;6.38;5.30;;;7.20;99.90;;;;;;4897389;29;20040;-72
2022/11/13 02:36:05;;;;;;;7.30;6.05;;;7.20;99.90;;;;;;4898082;29;20046;-72
2022/11/13 02:38:33;;;;;;;6.03;5.03;;;7.20;99.90;;;;;;4882041;29;20067;-72
2022/11/13 02:40:59;;;;;;;5.68;4.05;;;7.10;99.90;;;;;;4882323;29;20500;-72
2022/11/13 02:43:25;;;;;;;5.28;4.28;;;7.10;99.90;;;;;;4881187;29;20042;-73
2022/11/13 02:45:51;;;;;;;5.00;3.67;;;7.10;99.90;;;;;;4897201;29;20044;-73
2022/11/13 02:48:16;;;;;;;3.80;3.38;;;7.10;99.90;;;;;;4912951;29;20059;-73
2022/11/13 02:50:42;;;;;;;4.25;3.20;;;7.10;99.90;;;;;;4879836;29;20052;-72
2022/11/13 02:53:08;;;;;;;4.07;3.25;;;7.10;99.90;;;;;;4896811;29;20048;-73
2022/11/13 02:55:34;;;;;;;4.28;3.17;;;7.00;99.90;;;;;;4896894;29;20460;-73
2022/11/13 02:57:59;;;;;;;5.25;4.20;;;7.00;99.90;;;;;;4896985;29;20082;-73
2022/11/13 03:00:25;;;;;;;5.85;4.57;;;7.00;99.90;;;;;;4893428;29;20052;-73
2022/11/13 03:02:51;;;;;;;5.53;4.53;;;6.90;99.90;;;;;;4893597;29;20044;-72
2022/11/13 03:05:17;;;;;;;4.90;3.83;;;6.90;99.90;;;;;;4893575;29;20076;-72
2022/11/13 03:07:42;;;;;;;4.45;3.70;;;6.90;99.90;;;;;;4894093;29;20036;-72
2022/11/13 03:10:09;;;;;;;4.57;3.38;;;6.90;99.90;;;;;;4877552;29;20497;-73
2022/11/13 03:12:36;;;;;;;3.58;3.08;;;6.80;99.90;;;;;;4894709;29;20052;-72
2022/11/13 03:15:02;;;;;;;5.18;4.18;;;6.80;99.90;;;;;;4892704;29;20056;-73
2022/11/13 03:17:30;;;;;;;6.22;5.22;;;6.80;99.90;;;;;;4892518;29;20131;-73
2022/11/13 03:19:56;;;;;;;5.82;4.32;;;6.80;99.90;;;;;;4894319;29;20548;-73
2022/11/13 03:22:22;;;;;;;5.22;4.03;;;6.80;99.90;;;;;;4893625;29;20129;-72
2022/11/13 03:24:47;;;;;;;5.20;4.07;;;6.70;99.90;;;;;;4893120;29;20519;-72
2022/11/13 03:27:13;;;;;;;4.32;3.63;;;6.70;99.90;;;;;;4893338;29;20048;-73
2022/11/13 03:29:38;;;;;;;4.50;3.38;;;6.70;99.90;;;;;;4893517;29;20040;-72
2022/11/13 03:32:04;;;;;;;6.85;5.03;;;6.70;99.90;;;;;;4892610;29;20572;-73
2022/11/13 03:34:31;;;;;;;4.90;4.03;;;6.70;99.90;;;;;;4893466;29;20051;-73
2022/11/13 03:36:56;;;;;;;4.20;3.10;;;6.70;99.90;;;;;;4893489;29;20429;-72
2022/11/13 03:39:22;;;;;;;3.92;3.00;;;6.70;99.90;;;;;;4897299;29;20500;-72
2022/11/13 03:41:48;;;;;;;3.30;2.75;;;6.70;99.90;;;;;;4912401;29;20083;-73
2022/11/13 03:44:14;;;;;;;3.88;2.95;;;6.70;99.90;;;;;;4896814;29;20140;-73
2022/11/13 03:46:40;;;;;;;4.07;3.45;;;6.70;99.90;;;;;;4895342;29;20048;-73
2022/11/13 03:49:05;;;;;;;6.72;4.88;;;6.70;99.90;;;;;;4896714;29;20124;-72
2022/11/13 03:51:31;;;;;;;4.07;3.63;;;6.70;99.90;;;;;;4896457;29;20040;-73
2022/11/13 03:53:57;;;;;;;4.43;3.70;;;6.70;99.90;;;;;;4896815;29;20107;-73
2022/11/13 03:56:22;;;;;;;4.75;3.75;;;6.80;99.90;;;;;;4897735;29;20144;-72
2022/11/13 03:58:48;;;;;;;5.00;3.88;;;6.80;99.90;;;;;;4896131;29;20048;-73
2022/11/13 04:01:14;;;;;;;5.22;4.20;;;6.80;99.90;;;;;;4900710;29;20131;-73
2022/11/13 04:03:39;;;;;;;4.15;3.67;;;6.80;99.90;;;;;;4900229;29;20040;-73
2022/11/13 04:06:05;;;;;;;4.90;4.10;;;6.80;99.90;;;;;;4900300;29;20042;-73
2022/11/13 04:08:31;;;;;;;3.97;3.28;;;6.80;99.90;;;;;;4915609;29;20481;-73
2022/11/13 04:11:07;;;;;;;4.40;3.88;;;6.80;99.90;;;;;;4899612;29;20048;-73
2022/11/13 04:13:33;;;;;;;6.35;5.28;;;6.80;99.90;;;;;;4884591;29;20056;-73
2022/11/13 04:15:59;;;;;;;5.20;4.70;;;6.80;99.90;;;;;;4898882;29;20040;-73
2022/11/13 04:18:25;;;;;;;6.00;5.13;;;6.80;99.90;;;;;;4888270;29;20039;-73
2022/11/13 04:20:50;;;;;;;5.90;4.88;;;6.80;99.90;;;;;;4883342;29;20160;-73
2022/11/13 04:23:16;;;;;;;5.00;3.95;;;6.80;99.90;;;;;;4899445;29;20052;-73
2022/11/13 04:25:43;;;;;;;4.15;3.50;;;6.80;99.90;;;;;;4900859;29;20032;-73
2022/11/13 04:28:09;;;;;;;5.75;4.28;;;6.80;99.90;;;;;;4899602;29;20147;-73
2022/11/13 04:30:36;;;;;;;4.25;3.47;;;6.80;99.90;;;;;;4899694;29;20044;-73
2022/11/13 04:33:01;;;;;;;3.65;2.88;;;6.80;99.90;;;;;;4899386;29;20036;-73
2022/11/13 04:35:27;;;;;;;3.78;3.15;;;6.80;99.90;;;;;;4900600;29;20502;-73
2022/11/13 04:37:53;;;;;;;3.40;3.10;;;6.80;99.90;;;;;;4898412;29;20148;-73
2022/11/13 04:40:19;;;;;;;3.72;3.10;;;6.80;99.90;;;;;;4898793;29;20052;-73
2022/11/13 04:42:47;;;;;;;3.67;2.97;;;6.70;99.90;;;;;;4899119;29;20107;-73
2022/11/13 04:45:13;;;;;;;3.65;2.80;;;6.70;99.90;;;;;;4901526;29;20052;-73
2022/11/13 04:47:39;;;;;;;3.08;2.72;;;6.80;99.90;;;;;;4899514;29;20048;-73
2022/11/13 04:50:05;;;;;;;3.58;3.05;;;6.70;99.90;;;;;;4896770;29;20556;-73
2022/11/13 04:52:31;;;;;;;3.15;2.85;;;6.70;99.90;;;;;;4899300;29;20055;-73
2022/11/13 04:54:57;;;;;;;3.95;3.13;;;6.70;99.90;;;;;;4901124;29;20147;-73
2022/11/13 04:57:22;;;;;;;4.47;3.65;;;6.70;99.90;;;;;;4900081;29;20044;-74
2022/11/13 04:59:48;;;;;;;6.18;4.30;;;6.70;99.90;;;;;;4895309;29;20145;-72
2022/11/13 05:02:14;;;;;;;4.93;4.00;;;6.80;99.90;;;;;;4896649;29;20065;-71
2022/11/13 05:04:39;;;;;;;4.63;3.80;;;6.70;99.90;;;;;;4895370;29;20111;-73
2022/11/13 05:07:05;;;;;;;5.45;4.00;;;6.80;99.90;;;;;;4896297;29;20037;-72
2022/11/13 05:09:31;;;;;;;4.88;4.28;;;6.80;99.90;;;;;;4894785;29;20045;-72
2022/11/13 05:11:57;;;;;;;4.75;4.22;;;6.80;99.90;;;;;;4881045;29;20044;-73
2022/11/13 05:14:22;;;;;;;5.47;4.47;;;6.80;99.90;;;;;;4894827;29;20388;-73
2022/11/13 05:16:49;;;;;;;6.22;4.78;;;6.80;99.90;;;;;;4894726;29;20103;-73
2022/11/13 05:19:15;;;;;;;6.35;5.10;;;6.80;99.90;;;;;;4895910;29;20123;-73
2022/11/13 05:21:41;;;;;;;6.85;5.15;;;6.90;99.90;;;;;;4895445;29;20365;-74
2022/11/13 05:24:10;;;;;;;7.10;5.70;;;6.90;99.90;;;;;;4894448;29;20100;-73
2022/11/13 05:26:37;;;;;;;5.80;4.88;;;6.90;99.90;;;;;;4895741;29;20041;-73
2022/11/13 05:29:03;;;;;;;7.10;5.40;;;6.90;99.90;;;;;;4895107;29;20048;-72
2022/11/13 05:31:28;;;;;;;6.70;5.20;;;6.90;99.90;;;;;;4880204;29;20056;-72
2022/11/13 05:33:54;;;;;;;6.65;5.32;;;7.00;99.90;;;;;;4894261;29;20040;-72
2022/11/13 05:36:21;;;;;;;6.05;4.97;;;7.00;99.90;;;;;;4894866;29;20032;-72
2022/11/13 05:38:48;;;;;;;6.47;4.75;;;6.90;99.90;;;;;;4893612;29;20044;-72
2022/11/13 05:41:16;;;;;;;5.13;4.00;;;7.00;99.90;;;;;;4895162;29;20112;-72
2022/11/13 05:43:43;;;;;;;4.22;3.53;;;6.90;99.90;;;;;;4893462;29;20155;-72
2022/11/13 05:46:22;;;;;;;3.90;3.40;;;6.90;99.90;;;;;;4894305;29;20401;-72
2022/11/13 05:49:00;;;;;;;3.72;3.35;;;6.80;99.90;;;;;;4869456;29;20045;-72
2022/11/13 05:51:29;;;;;;;4.45;3.92;;;6.70;99.90;;;;;;4891471;29;20132;-73
2022/11/13 05:53:55;;;;;;;5.20;3.90;;;6.70;99.90;;;;;;4893945;29;20072;-72
2022/11/13 05:56:32;;;;;;;5.70;4.47;;;6.70;99.90;;;;;;4892889;29;20063;-72
2022/11/13 05:59:00;;;;;;;4.57;3.70;;;6.70;99.90;;;;;;4887983;29;20563;-72
2022/11/13 06:01:31;;;;;;;5.00;3.92;;;6.60;99.90;;;;;;4897166;29;20036;-72
2022/11/13 06:03:58;;;;;;;5.15;3.90;;;6.60;99.90;;;;;;4882378;29;20047;-72
2022/11/13 06:06:25;;;;;;;4.95;3.97;;;6.50;99.90;;;;;;4898836;29;20385;-72
2022/11/13 06:08:52;;;;;;;4.72;4.13;;;6.50;99.90;;;;;;4896162;29;20488;-72
2022/11/13 06:11:21;;;;;;;6.55;5.07;;;6.40;99.90;;;;;;4891868;29;20139;-73
2022/11/13 06:13:49;;;;;;;6.15;4.85;;;6.40;99.90;;;;;;4897480;29;20040;-73
2022/11/13 06:16:20;;;;;;;5.00;4.15;;;6.30;99.90;;;;;;4898747;29;20500;-74
2022/11/13 06:18:47;;;;;;;4.75;4.10;;;6.30;99.90;;;;;;4913347;29;20079;-73
2022/11/13 06:21:14;;;;;;;;;;;6.30;99.90;;;;;;4899626;29;20412;-73
2022/11/13 06:23:39;;;;;;;4.55;3.78;;;6.20;99.90;;;;;;4911750;29;19990;-73
2022/11/13 06:26:17;;;;;;;4.50;3.70;;;6.10;99.90;;;;;;4887346;29;20586;-74
2022/11/13 06:28:44;;;;;;;2.95;2.65;;;6.10;99.90;;;;;;4910878;29;20051;-74
2022/11/13 06:31:13;;;;;;;;;;;6.00;99.90;;;;;;4894056;29;20041;-73
2022/11/13 06:33:40;;;;;;;2.65;2.40;;;5.90;99.90;;;;;;4900093;29;20022;-73
2022/11/13 06:36:10;;;;;;;3.15;2.70;;;5.80;99.90;;;;;;4897772;29;20048;-73
2022/11/13 06:38:37;;;;;;;3.83;2.50;;;5.60;99.90;;;;;;4869175;29;20153;-72
2022/11/13 06:41:04;;;;;;;2.67;2.33;;;5.60;99.90;;;;;;4894663;29;20412;-73
2022/11/13 06:43:30;;;;;;;;;;;5.50;99.90;;;;;;4880657;29;20334;-73
2022/11/13 06:45:56;;;;;;;4.03;3.08;;;5.40;99.90;;;;;;4896365;29;20431;-74
2022/11/13 06:48:22;;;;;;;3.50;2.80;;;5.40;99.90;;;;;;4895703;29;20040;-73
2022/11/13 06:50:49;;;;;;;2.60;2.30;;;5.30;99.90;;;;;;4895476;29;20063;-73
2022/11/13 06:53:15;;;;;;;3.20;2.45;;;5.30;99.90;;;;;;4910614;29;20079;-73
2022/11/13 06:55:43;;;;;;;3.17;2.50;;;5.20;99.90;;;;;;4913060;29;20062;-74
2022/11/13 06:58:09;;;;;;;3.17;2.53;;;5.20;99.90;;;;;;4895465;29;20136;-74
2022/11/13 07:00:35;;;;;;;4.43;3.97;;;5.20;99.90;;;;;;4890777;29;20143;-73
2022/11/13 07:03:00;;;;;;;7.70;5.30;;;5.20;99.90;;;;;;4892254;29;20079;-73
2022/11/13 07:05:26;;;;;;;6.72;5.63;;;5.20;99.90;;;;;;4891512;29;20045;-73
2022/11/13 07:07:52;;;;;;;10.23;7.65;;;5.20;99.90;;;;;;4892358;29;20077;-74
2022/11/13 07:10:17;;;;;;;11.68;7.80;;;5.20;99.90;;;;;;4891765;29;20044;-74
2022/11/13 07:12:43;;;;;;;9.65;8.05;;;5.20;99.90;;;;;;4891637;29;20052;-74
2022/11/13 07:15:09;;;;;;;8.95;6.85;;;5.20;99.90;;;;;;4889696;29;20139;-74
2022/11/13 07:17:35;;;;;;;7.03;6.22;;;5.30;99.90;;;;;;4889446;29;20040;-74
2022/11/13 07:20:00;;;;;;;12.02;8.98;;;5.40;99.90;;;;;;4891934;29;20682;-74
2022/11/13 07:22:29;;;;;;;9.90;7.68;;;5.40;99.90;;;;;;4892366;29;20044;-75
2022/11/13 07:24:55;;;;;;;8.25;7.03;;;5.50;99.90;;;;;;4890306;29;20140;-74
2022/11/13 07:27:21;;;;;;;8.73;7.40;;;5.50;99.90;;;;;;4892974;29;20044;-74
2022/11/13 07:29:47;;;;;;;8.38;6.07;;;5.60;99.90;;;;;;4891174;29;20076;-74
2022/11/13 07:32:12;;;;;;;7.13;5.72;;;5.60;99.90;;;;;;4901216;29;20075;-74
2022/11/13 07:34:38;;;;;;;7.00;4.68;;;5.60;99.90;;;;;;4892860;29;20073;-74
2022/11/13 07:37:05;;;;;;;6.43;4.45;;;5.60;99.90;;;;;;4889488;29;20056;-75
2022/11/13 07:39:31;;;;;;;5.38;4.57;;;5.60;99.90;;;;;;4893081;29;20413;-75
2022/11/13 07:41:57;;;;;;;7.15;4.65;;;5.70;99.90;;;;;;4893548;29;20060;-75
2022/11/13 07:44:23;;;;;;;6.38;5.03;;;5.70;99.90;;;;;;4878535;29;20037;-75
2022/11/13 07:46:48;;;;;;;5.05;4.10;;;5.80;99.90;;;;;;4894420;29;20052;-74
2022/11/13 07:49:14;;;;;;;5.03;4.03;;;5.80;99.90;;;;;;4894191;29;20505;-74
2022/11/13 07:51:39;;;;;;;4.93;4.03;;;5.80;99.90;;;;;;4893699;29;20281;-74
2022/11/13 07:54:05;;;;;;;4.55;3.78;;;5.90;99.90;;;;;;4893614;29;20045;-74
2022/11/13 07:56:31;;;;;;;4.63;4.10;;;5.90;99.90;;;;;;4878341;29;20196;-75
2022/11/13 07:58:57;;;;;;;4.22;3.83;;;6.00;99.90;;;;;;4895094;29;20048;-73
2022/11/13 08:01:23;;;;;;;6.35;5.07;;;6.10;99.90;;;;;;4897144;29;20076;-73
2022/11/13 08:03:48;;;;;;;7.13;4.90;;;6.20;99.90;;;;;;4896867;29;20048;-74
2022/11/13 08:06:14;;;;;;;7.28;5.40;;;6.20;99.90;;;;;;4882578;29;20044;-73
2022/11/13 08:08:40;;;;;;;7.75;6.90;;;6.30;99.90;;;;;;4869877;29;20189;-73
2022/11/13 08:11:08;;;;;;;7.88;5.95;;;6.40;99.90;;;;;;4889316;29;20150;-74
2022/11/13 08:13:35;;;;;;;7.13;6.00;;;6.50;99.90;;;;;;4898311;29;20507;-73
2022/11/13 08:16:02;;;;;;;7.80;6.32;;;6.50;99.90;;;;;;4896443;29;20048;-74
2022/11/13 08:18:29;;;;;;;8.00;5.75;;;6.60;99.90;;;;;;4896340;29;20044;-73
2022/11/13 08:20:55;;;;;;;7.80;6.30;;;6.70;99.90;;;;;;4897523;29;20052;-74
2022/11/13 08:23:21;;;;;;;6.75;5.43;;;6.70;99.90;;;;;;4912270;29;20036;-73
2022/11/13 08:25:47;;;;;;;6.35;5.28;;;6.80;99.90;;;;;;4913281;29;20096;-73
2022/11/13 08:28:13;;;;;;;6.38;5.10;;;6.80;99.90;;;;;;4898948;29;20055;-73
2022/11/13 08:30:42;;;;;;;8.00;5.75;;;6.90;99.90;;;;;;4898472;29;20051;-73
2022/11/13 08:33:08;;;;;;;5.25;4.50;;;7.00;99.90;;;;;;4902756;29;20051;-73
2022/11/13 08:35:34;;;;;;;5.70;4.68;;;7.00;99.90;;;;;;4899688;29;20055;-73
2022/11/13 08:38:05;;;;;;;4.03;3.50;;;7.10;99.90;;;;;;4901105;29;20135;-77
2022/11/13 08:40:30;;;;;;;6.03;4.40;;;7.20;99.90;;;;;;4915498;29;20036;-78
2022/11/13 08:43:00;;;;;;;4.32;3.92;;;7.20;99.90;;;;;;4899702;29;20059;-77
2022/11/13 08:45:27;;;;;;;7.60;5.60;;;7.30;99.90;;;;;;4898359;29;20493;-78
2022/11/13 08:47:53;;;;;;;5.38;4.82;;;7.40;99.90;;;;;;4899082;29;20104;-78
2022/11/13 08:50:19;;;;;;;6.78;4.45;;;7.40;99.90;;;;;;4901012;29;20262;-78
2022/11/13 08:52:45;;;;;;;5.78;4.78;;;7.50;99.90;;;;;;4897252;29;20464;-73
2022/11/13 08:55:11;;;;;;;5.63;4.47;;;7.60;99.90;;;;;;4903206;29;20076;-74
2022/11/13 08:57:39;;;;;;;4.70;3.78;;;7.70;99.90;;;;;;4909441;29;20051;-74
2022/11/13 09:00:06;;;;;;;4.50;3.92;;;7.70;99.90;;;;;;4889123;29;20086;-74
2022/11/13 09:02:31;;;;;;;5.85;4.65;;;7.80;99.90;;;;;;4900381;29;20040;-73
2022/11/13 09:04:57;;;;;;;5.78;4.55;;;7.90;99.90;;;;;;4918667;29;20409;-74
2022/11/13 09:07:22;;;;;;;6.55;5.70;;;7.90;99.90;;;;;;4903751;29;20052;-74
2022/11/13 09:09:48;;;;;;;5.97;4.78;;;8.00;99.90;;;;;;4890392;29;20036;-74
2022/11/13 09:12:14;;;;;;;6.40;5.45;;;8.10;99.90;;;;;;4890796;29;20052;-73
2022/11/13 09:14:40;;;;;;;5.30;4.55;;;8.20;99.90;;;;;;4883704;29;20485;-73
2022/11/13 09:17:06;;;;;;;4.43;3.70;;;8.20;99.90;;;;;;4902451;29;20045;-73
2022/11/13 09:19:31;;;;;;;3.97;3.58;;;8.20;99.90;;;;;;4890003;29;20048;-74
2022/11/13 09:21:57;;;;;;;6.93;6.03;;;8.30;99.90;;;;;;4904376;29;20051;-74
2022/11/13 09:24:23;;;;;;;6.05;5.10;;;8.30;99.90;;;;;;4888705;29;20048;-73
2022/11/13 09:26:48;;;;;;;7.70;6.90;;;8.30;99.90;;;;;;4890907;29;20135;-73
2022/11/13 09:29:14;;;;;;;7.13;5.70;;;8.40;99.90;;;;;;4904491;29;20060;-74
2022/11/13 09:31:40;;;;;;;6.28;5.35;;;8.40;99.90;;;;;;4907819;29;20052;-74
2022/11/13 09:34:06;;;;;;;6.43;5.43;;;8.50;99.90;;;;;;4899398;29;20493;-74
2022/11/13 09:36:32;;;;;;;;;;;8.60;99.90;;;;;;4916449;29;20040;-73
2022/11/13 09:38:59;;;;;;;4.53;3.92;;;8.70;99.90;;;;;;4917691;29;19970;-74
2022/11/13 09:41:36;;;;;;;5.70;4.63;;;8.80;99.90;;;;;;4905669;29;20050;-74
2022/11/13 09:44:05;;;;;;;5.35;4.80;;;8.80;99.90;;;;;;4902059;29;20049;-74
2022/11/13 09:46:45;;;;;;;7.55;6.18;;;8.90;99.90;;;;;;4901478;29;20044;-74
2022/11/13 09:49:14;;;;;;;6.97;5.50;;;9.00;99.90;;;;;;4903293;29;20044;-74
2022/11/13 09:51:42;;;;;;;5.93;4.50;;;9.00;99.90;;;;;;4906079;29;20044;-73
2022/11/13 09:54:13;;;;;;;5.38;4.70;;;9.10;99.90;;;;;;4897394;29;20040;-74
2022/11/13 09:56:45;;;;;;;4.35;3.92;;;9.20;99.90;;;;;;4899514;29;20507;-75
2022/11/13 09:59:27;;;;;;;5.05;4.20;;;9.20;99.90;;;;;;4909806;29;20174;-74
2022/11/13 10:02:24;;;;;;;4.88;3.90;;;9.40;99.90;;;;;;4927818;29;20088;-73
2022/11/13 10:05:18;;;;;;;4.70;4.10;;;9.50;99.90;;;;;;4903230;29;20074;-74
2022/11/13 10:08:01;;;;;;;4.70;4.00;;;9.60;99.90;;;;;;4896366;29;20048;-74
2022/11/13 10:10:55;;;;;;;4.38;3.72;;;9.80;99.90;;;;;;4885468;29;20044;-73
2022/11/13 10:13:29;;;;;;;3.80;3.38;;;9.90;99.90;;;;;;4918073;29;20047;-73
2022/11/13 10:16:21;;;;;;;5.65;4.07;;;10.00;99.90;;;;;;4905937;29;20047;-73
2022/11/13 10:18:49;;;;;;;6.50;5.40;;;10.20;99.90;;;;;;4890059;29;20078;-73
2022/11/13 10:21:35;;;;;;;5.32;4.70;;;10.30;99.90;;;;;;4908238;29;20047;-73
2022/11/13 10:24:10;;;;;;;5.63;4.55;;;10.40;99.90;;;;;;4906004;29;20055;-73
2022/11/13 10:26:36;;;;;;;4.70;4.20;;;10.50;99.90;;;;;;4905346;29;20472;-87
2022/11/13 10:29:14;;;;;;;6.28;4.55;;;10.70;99.90;;;;;;4897754;29;20071;-72
2022/11/13 10:31:46;;;;;;;4.45;4.05;;;10.90;99.90;;;;;;4906969;29;20135;-73
2022/11/13 10:34:13;;;;;;;4.70;4.10;;;11.10;99.90;;;;;;4900741;29;20040;-74
2022/11/13 10:37:12;;;;;;;4.10;3.28;;;11.30;99.90;;;;;;4896357;29;20123;-73
2022/11/13 10:39:42;;;;;;;4.68;4.10;;;11.60;99.90;;;;;;4900902;29;20040;-74
2022/11/13 10:42:21;;;;;;;4.20;3.70;;;11.70;99.90;;;;;;4921579;29;20088;-73
2022/11/13 10:44:56;;;;;;;4.80;3.40;;;11.90;99.90;;;;;;4903264;29;20555;-74
2022/11/13 10:47:24;;;;;;;3.97;3.55;;;12.20;99.90;;;;;;4895748;29;20047;-74
2022/11/13 10:49:50;;;;;;;4.72;4.13;;;12.40;99.90;;;;;;4905016;29;20439;-72
2022/11/13 10:52:24;;;;;;;4.18;3.17;;;12.70;99.90;;;;;;4904630;29;20396;-72
2022/11/13 10:55:11;;;;;;;4.32;3.42;;;12.90;99.90;;;;;;4905129;29;20256;-73
2022/11/13 10:57:36;;;;;;;4.10;3.30;;;12.80;99.90;;;;;;4881843;29;20053;-74
2022/11/13 11:00:25;;;;;;;5.40;4.22;;;12.80;99.90;;;;;;4888258;29;20117;-74
2022/11/13 11:02:51;;;;;;;4.93;4.10;;;12.80;99.90;;;;;;4909597;29;20088;-75
2022/11/13 11:05:20;;;;;;;3.70;3.40;;;12.90;99.90;;;;;;4864563;29;20048;-73
2022/11/13 11:07:45;;;;;;;3.33;3.03;;;12.90;99.90;;;;;;4900182;29;20123;-72
2022/11/13 11:10:34;;;;;;;2.83;2.58;;;12.80;99.90;;;;;;4884740;29;20123;-72
2022/11/13 11:13:11;;;;;;;3.40;2.90;;;12.90;99.90;;;;;;4899292;29;20077;-72
2022/11/13 11:15:39;;;;;;;3.97;3.40;;;13.10;99.90;;;;;;4879852;29;20139;-74
2022/11/13 11:18:25;;;;;;;3.10;2.78;;;13.40;99.90;;;;;;4906982;29;20054;-72
2022/11/13 11:20:57;;;;;;;4.82;4.10;;;13.70;99.90;;;;;;4870038;29;20060;-72
2022/11/13 11:23:43;;;;;;;3.75;3.40;;;13.80;99.90;;;;;;4911802;29;20044;-72
2022/11/13 11:26:20;;;;;;;3.37;3.07;;;14.00;99.90;;;;;;4898465;29;20052;-72
2022/11/13 11:28:50;;;;;;;3.53;2.88;;;14.20;99.90;;;;;;4900066;29;20375;-72
2022/11/13 11:31:31;;;;;;;3.60;3.28;;;14.20;99.90;;;;;;4881664;29;20044;-72
2022/11/13 11:34:21;;;;;;;5.47;3.53;;;14.30;99.90;;;;;;4883100;29;20052;-73
2022/11/13 11:37:04;;;;;;;3.90;3.50;;;14.40;99.90;;;;;;4900041;29;20115;-72
2022/11/13 11:39:34;;;;;;;4.60;4.05;;;14.50;99.90;;;;;;4896686;29;20700;-71
2022/11/13 11:42:33;;;;;;;4.25;3.78;;;14.40;99.90;;;;;;4894046;29;20127;-72
2022/11/13 11:45:28;;;;;;;4.35;3.80;;;14.40;99.90;;;;;;4886501;29;20044;-71
2022/11/13 11:47:55;;;;;;;4.30;3.80;;;14.30;99.90;;;;;;4900093;29;20099;-72
2022/11/13 11:50:36;;;;;;;;;;;14.60;99.90;;;;;;4897082;29;20047;-71
2022/11/13 11:53:27;;;;;;;5.93;4.57;;;14.90;99.90;;;;;;4897152;29;19963;-71
2022/11/13 11:55:55;;;;;;;5.05;4.00;;;15.10;99.90;;;;;;4896830;29;20584;-72
2022/11/13 11:58:37;;;;;;;4.50;3.90;;;15.10;99.90;;;;;;4896476;29;20044;-72
2022/11/13 12:01:29;;;;;;;4.30;3.42;;;15.20;99.90;;;;;;4896826;29;20070;-72
2022/11/13 12:04:21;;;;;;;4.40;3.53;;;15.30;99.90;;;;;;4899667;29;20040;-71
2022/11/13 12:07:05;;;;;;;3.53;3.03;;;15.50;99.90;;;;;;4864052;29;20135;-73
2022/11/13 12:09:40;;;;;;;4.47;3.97;;;15.80;99.90;;;;;;4901392;29;20044;-72
2022/11/13 12:12:21;;;;;;;4.15;3.47;;;16.00;99.90;;;;;;4899875;29;20123;-72
2022/11/13 12:15:03;;;;;;;4.55;3.50;;;15.80;99.90;;;;;;4915620;29;20083;-80
2022/11/13 12:17:58;;;;;;;3.67;3.22;;;15.60;99.90;;;;;;4913939;29;20079;-80
2022/11/13 12:20:48;;;;;;;3.78;3.10;;;15.90;99.90;;;;;;4904756;29;20395;-81
2022/11/13 12:23:19;;;;;;;3.00;2.58;;;16.00;99.90;;;;;;4901999;29;20166;-81
2022/11/13 12:26:01;;;;;;;4.65;3.70;;;16.20;99.90;;;;;;4917592;29;20856;-80
2022/11/13 12:28:39;;;;;;;3.45;3.10;;;16.20;99.90;;;;;;4917425;29;20389;-81
2022/11/13 12:31:23;;;;;;;5.22;3.75;;;16.00;99.90;;;;;;4917524;29;20119;-81
2022/11/13 12:34:06;;;;;;;3.80;3.40;;;16.00;99.90;;;;;;4917166;29;20056;-81
2022/11/13 12:36:33;;;;;;;4.93;3.90;;;15.90;99.90;;;;;;4917136;29;20044;-81
2022/11/13 12:39:16;;;;;;;3.92;3.22;;;15.90;99.90;;;;;;4902967;29;20099;-81
2022/11/13 12:41:55;;;;;;;4.15;3.42;;;15.80;99.90;;;;;;4916850;29;20583;-81
2022/11/13 12:44:29;;;;;;;3.17;2.85;;;15.70;99.90;;;;;;4901383;29;20067;-81
2022/11/13 12:46:59;;;;;;;3.97;3.08;;;15.80;99.90;;;;;;4885611;29;20040;-79
2022/11/13 12:49:34;;;;;;;3.13;2.80;;;15.90;99.90;;;;;;4900476;29;20131;-80
2022/11/13 12:52:04;;;;;;;5.28;3.55;;;15.90;99.90;;;;;;4900810;29;20127;-73
2022/11/13 12:54:35;;;;;;;3.38;3.00;;;15.80;99.90;;;;;;4900003;29;20047;-73
2022/11/13 12:57:22;;;;;;;4.40;3.40;;;15.70;99.90;;;;;;4900418;29;20059;-73
2022/11/13 12:59:55;;;;;;;3.97;3.38;;;15.70;99.90;;;;;;4897602;29;20115;-73
2022/11/13 13:02:41;;;;;;;3.25;2.78;;;15.60;99.90;;;;;;4895805;29;20059;-73
2022/11/13 13:05:25;;;;;;;3.13;2.83;;;15.70;99.90;;;;;;4899426;29;20492;-73
2022/11/13 13:08:03;;;;;;;3.13;2.60;;;15.70;99.90;;;;;;4899790;29;20115;-73